createdAt,value
2019-04-10T00:02:46.003Z,51.13
2019-04-10T00:07:47.968Z,50.47
2019-04-10T00:12:49.771Z,48.80
2019-04-10T00:17:51.477Z,50.70
2019-04-10T00:22:52.818Z,54.73
2019-04-10T00:27:54.849Z,53.87
2019-04-10T00:32:56.463Z,52.17
2019-04-10T00:37:57.656Z,49.23
2019-04-10T00:42:58.762Z,44.47
2019-04-10T00:47:59.820Z,42.70
2019-04-10T00:53:00.980Z,42.77
2019-04-10T00:58:02.320Z,43.23
2019-04-10T01:03:03.621Z,41.77
2019-04-10T01:08:04.712Z,43.60
2019-04-10T01:13:05.806Z,44.80
2019-04-10T01:18:06.893Z,48.47
2019-04-10T01:23:07.987Z,48.83
2019-04-10T01:28:09.067Z,53.70
2019-04-10T01:33:10.352Z,52.83
2019-04-10T01:38:11.563Z,56.70
2019-04-10T01:43:15.866Z,57.80
2019-04-10T01:48:15.665Z,56.10
2019-04-10T01:53:17.619Z,54.70
2019-04-10T01:58:21.086Z,55.83
2019-04-10T02:03:22.337Z,58.70
2019-04-10T02:08:23.642Z,61.37
2019-04-10T02:13:25.466Z,58.87
2019-04-10T02:18:27.688Z,61.20
2019-04-10T02:23:28.924Z,60.33
2019-04-10T02:28:30.968Z,63.60
2019-04-10T02:33:33.615Z,62.93
2019-04-10T02:38:50.797Z,63.87
2019-04-10T02:43:38.127Z,63.73
2019-04-10T02:48:41.523Z,63.00
2019-04-10T02:53:43.791Z,62.27
2019-04-10T02:58:46.880Z,64.30
2019-04-10T03:03:50.124Z,63.60
2019-04-10T03:09:07.979Z,63.70
2019-04-10T03:13:55.605Z,64.40
2019-04-10T03:18:56.930Z,66.03
2019-04-10T03:23:58.087Z,65.23
2019-04-10T03:28:59.715Z,65.47
2019-04-10T03:34:21.125Z,64.23
2019-04-10T03:39:21.633Z,63.33
2019-04-10T03:44:22.924Z,67.73
2019-04-10T03:49:24.160Z,69.80
2019-04-10T03:54:25.255Z,65.97
2019-04-10T03:59:26.419Z,64.03
2019-04-10T04:04:27.535Z,64.33
2019-04-10T04:09:29.384Z,67.30
2019-04-10T04:14:30.619Z,63.63
2019-04-10T04:19:32.433Z,68.47
2019-04-10T04:24:33.623Z,73.50
2019-04-10T04:29:34.724Z,69.77
2019-04-10T04:34:36.746Z,68.47
2019-04-10T04:39:37.934Z,65.40
2019-04-10T04:44:39.799Z,68.97
2019-04-10T04:49:41.928Z,96.25
2019-04-10T04:54:43.541Z,70.00
2019-04-10T04:59:44.964Z,68.20
2019-04-10T05:04:46.156Z,67.43
2019-04-10T05:09:48.151Z,70.87
2019-04-10T05:14:49.469Z,69.23
2019-04-10T05:19:50.649Z,66.17
2019-04-10T05:24:52.338Z,67.43
2019-04-10T05:29:53.660Z,65.10
2019-04-10T05:34:54.867Z,66.53
2019-04-10T05:39:55.989Z,65.80
2019-04-10T05:44:57.147Z,67.00
2019-04-10T05:49:58.235Z,67.90
2019-04-10T05:54:59.919Z,62.70
2019-04-10T06:00:04.729Z,62.17
2019-04-10T06:05:06.338Z,61.97
2019-04-10T06:10:10.040Z,61.50
2019-04-10T06:15:11.336Z,62.10
2019-04-10T06:20:14.201Z,66.03
2019-04-10T06:25:18.827Z,62.93
2019-04-10T06:30:19.769Z,62.87
2019-04-10T06:35:21.979Z,61.57
2019-04-10T06:40:25.901Z,66.90
2019-04-10T06:45:26.311Z,62.27
2019-04-10T06:50:28.597Z,61.87
2019-04-10T06:55:30.407Z,59.70
2019-04-10T07:00:32.482Z,59.73
2019-04-10T07:05:40.822Z,61.73
2019-04-10T07:10:49.122Z,60.83
2019-04-10T07:15:42.906Z,58.03
2019-04-10T07:20:44.147Z,58.63
2019-04-10T07:25:46.903Z,56.33
2019-04-10T07:30:48.448Z,52.30
2019-04-10T07:35:49.952Z,52.33
2019-04-10T07:40:51.331Z,53.00
2019-04-10T07:45:56.597Z,50.20
2019-04-10T07:50:55.852Z,50.97
2019-04-10T07:56:04.450Z,49.67
2019-04-10T08:01:00.972Z,49.00
2019-04-10T08:06:02.477Z,48.50
2019-04-10T08:11:04.942Z,47.67
2019-04-10T08:16:06.652Z,48.03
2019-04-10T08:21:07.732Z,45.80
2019-04-10T08:26:08.946Z,45.83
2019-04-10T08:31:10.130Z,43.77
2019-04-10T08:36:11.244Z,41.63
2019-04-10T08:41:12.919Z,42.70
2019-04-10T08:46:15.041Z,42.47
2019-04-10T08:51:17.062Z,42.93
2019-04-10T08:56:18.875Z,42.20
2019-04-10T09:01:20.863Z,43.40
2019-04-10T09:06:23.097Z,40.50
2019-04-10T09:11:27.924Z,41.40
2019-04-10T09:16:28.730Z,40.73
2019-04-10T09:21:30.012Z,41.97
2019-04-10T09:26:31.123Z,40.13
2019-04-10T09:31:32.236Z,41.23
2019-04-10T09:36:33.377Z,42.30
2019-04-10T09:41:34.567Z,42.03
2019-04-10T09:46:35.654Z,38.50
2019-04-10T09:51:36.743Z,43.67
2019-04-10T09:56:38.553Z,43.37
2019-04-10T10:01:39.740Z,43.93
2019-04-10T10:06:41.095Z,42.43
2019-04-10T10:11:42.753Z,40.43
2019-04-10T10:16:44.232Z,40.03
2019-04-10T10:21:45.735Z,40.27
2019-04-10T10:26:46.829Z,41.03
2019-04-10T10:31:49.807Z,39.87
2019-04-10T10:36:53.164Z,39.30
2019-04-10T10:41:54.459Z,40.23
2019-04-10T10:46:55.868Z,39.77
2019-04-10T10:51:57.281Z,37.37
2019-04-10T10:56:58.574Z,36.80
2019-04-10T11:02:00.264Z,35.10
2019-04-10T11:07:02.653Z,35.83
2019-04-10T11:12:04.712Z,35.67
2019-04-10T11:17:06.465Z,36.13
2019-04-10T11:22:09.396Z,39.97
2019-04-10T11:27:11.879Z,39.20
2019-04-10T11:32:14.359Z,38.67
2019-04-10T11:37:24.224Z,38.60
2019-04-10T11:42:21.025Z,38.20
2019-04-10T11:47:23.601Z,38.63
2019-04-10T11:52:33.780Z,38.33
2019-04-10T11:57:30.790Z,37.30
2019-04-10T12:02:34.351Z,38.67
2019-04-10T12:08:06.078Z,38.90
2019-04-10T12:12:37.589Z,39.40
2019-04-10T12:17:38.900Z,40.10
2019-04-10T12:22:40.721Z,42.17
2019-04-10T12:27:42.718Z,39.33
2019-04-10T12:32:45.967Z,39.20
2019-04-10T12:37:57.335Z,39.07
2019-04-10T12:42:50.405Z,40.57
2019-04-10T12:47:52.426Z,40.20
2019-04-10T12:52:54.639Z,39.10
2019-04-10T12:58:06.066Z,42.87
2019-04-10T13:02:58.980Z,39.93
2019-04-10T13:08:12.901Z,40.47
2019-04-10T13:13:04.034Z,41.97
2019-04-10T13:18:05.937Z,42.50
2019-04-10T13:23:07.144Z,41.57
2019-04-10T13:28:08.739Z,42.23
2019-04-10T13:33:12.140Z,42.00
2019-04-10T13:38:23.261Z,40.93
2019-04-10T13:43:17.943Z,42.07
2019-04-10T13:48:19.311Z,42.70
2019-04-10T13:53:20.415Z,44.60
2019-04-10T13:58:21.615Z,45.77
2019-04-10T14:03:22.725Z,43.67
2019-04-10T14:08:40.280Z,45.73
2019-04-10T14:13:27.584Z,44.97
2019-04-10T14:18:29.448Z,46.67
2019-04-10T14:23:31.346Z,43.30
2019-04-10T14:28:34.027Z,46.33
2019-04-10T14:33:35.784Z,43.77
2019-04-10T14:38:37.049Z,44.97
2019-04-10T14:43:38.397Z,46.17
2019-04-10T14:48:40.389Z,45.17
2019-04-10T14:53:41.764Z,44.33
2019-04-10T14:58:43.045Z,43.37
2019-04-10T15:03:44.537Z,45.17
2019-04-10T15:08:46.042Z,49.10
2019-04-10T15:13:47.428Z,49.07
2019-04-10T15:18:50.164Z,51.73
2019-04-10T15:23:51.263Z,49.03
2019-04-10T15:28:52.492Z,51.13
2019-04-10T15:33:53.832Z,52.83
2019-04-10T15:38:55.004Z,48.13
2019-04-10T15:43:57.267Z,51.77
2019-04-10T15:48:58.626Z,50.70
2019-04-10T15:53:59.828Z,47.87
2019-04-10T15:59:00.924Z,46.70
2019-04-10T16:04:03.132Z,37.77
2019-04-10T16:09:07.176Z,38.67
2019-04-10T16:14:17.936Z,30.57
2019-04-10T16:19:18.342Z,28.20
2019-04-10T16:24:21.349Z,27.80
2019-04-10T16:29:22.466Z,29.27
2019-04-10T16:34:24.791Z,26.03
2019-04-10T16:39:27.615Z,27.57
2019-04-10T16:44:29.348Z,29.57
2019-04-10T16:49:30.917Z,38.43
2019-04-10T16:54:33.299Z,36.77
2019-04-10T16:59:34.461Z,32.50
2019-04-10T17:04:36.564Z,29.13
2019-04-10T17:09:37.682Z,30.20
2019-04-10T17:14:39.884Z,31.27
2019-04-10T17:19:49.373Z,33.23
2019-04-10T17:24:45.286Z,34.13
2019-04-10T17:29:47.293Z,31.17
2019-04-10T17:34:49.295Z,29.23
2019-04-10T17:39:51.478Z,27.87
2019-04-10T17:44:53.948Z,28.30
2019-04-10T17:49:56.056Z,35.70
2019-04-10T17:54:57.363Z,33.53
2019-04-10T17:59:58.608Z,35.17
2019-04-10T18:04:59.815Z,33.73
2019-04-10T18:10:02.373Z,35.60
2019-04-10T18:15:06.083Z,31.50
2019-04-10T18:20:08.412Z,31.30
2019-04-10T18:25:09.777Z,30.77
2019-04-10T18:30:12.029Z,30.50
2019-04-10T18:35:14.295Z,29.97
2019-04-10T18:40:15.943Z,30.00
2019-04-10T18:45:17.576Z,30.03
2019-04-10T18:50:18.965Z,32.30
2019-04-10T18:55:20.427Z,37.87
2019-04-10T19:00:40.714Z,36.30
2019-04-10T19:05:50.102Z,33.47
2019-04-10T19:10:51.712Z,33.60
2019-04-10T19:15:55.402Z,33.23
2019-04-10T19:20:59.065Z,34.50
2019-04-10T19:26:00.391Z,34.03
2019-04-10T19:31:12.962Z,34.10
2019-04-10T19:36:07.803Z,34.67
2019-04-10T19:41:21.223Z,33.67
2019-04-10T19:46:12.537Z,35.13
2019-04-10T19:51:14.923Z,34.93
2019-04-10T19:56:16.157Z,33.97
2019-04-10T20:01:17.481Z,33.63
2019-04-10T20:06:20.989Z,34.17
2019-04-10T20:11:31.896Z,34.57
2019-04-10T20:16:24.926Z,33.37
2019-04-10T20:21:26.179Z,33.67
2019-04-10T20:26:27.329Z,35.73
2019-04-10T20:31:33.536Z,36.10
2019-04-10T20:36:35.267Z,35.20
2019-04-10T20:41:46.520Z,33.67
2019-04-10T20:46:39.728Z,33.67
2019-04-10T20:51:41.909Z,36.00
2019-04-10T20:56:43.319Z,35.83
2019-04-10T21:01:44.915Z,35.20
2019-04-10T21:06:46.208Z,36.07
2019-04-10T21:12:00.993Z,34.97
2019-04-10T21:16:50.312Z,34.30
2019-04-10T21:21:51.619Z,35.37
2019-04-10T21:26:52.812Z,34.20
2019-04-10T21:32:05.925Z,34.03
2019-04-10T21:37:08.033Z,35.70
2019-04-10T21:42:16.781Z,31.87
2019-04-10T21:47:13.098Z,35.53
2019-04-10T21:52:14.417Z,43.30
2019-04-10T21:57:16.084Z,40.40
2019-04-10T22:02:17.602Z,33.27
2019-04-10T22:07:29.746Z,25.53
2019-04-10T22:12:34.610Z,24.37
2019-04-10T22:17:34.215Z,18.20
2019-04-10T22:22:35.460Z,15.87
2019-04-10T22:27:36.558Z,15.53
2019-04-10T22:32:38.771Z,14.93
2019-04-10T22:37:40.077Z,16.20
2019-04-10T22:42:46.070Z,15.67
2019-04-10T22:47:44.176Z,16.17
2019-04-10T22:52:45.415Z,16.17
2019-04-10T22:57:46.585Z,16.00
2019-04-10T23:02:48.543Z,16.83
2019-04-10T23:07:49.756Z,17.03
2019-04-10T23:12:59.044Z,16.90
2019-04-10T23:17:54.154Z,16.77
2019-04-10T23:22:55.361Z,16.93
2019-04-10T23:27:56.499Z,16.37
2019-04-10T23:32:57.677Z,17.33
2019-04-10T23:37:59.480Z,17.47
2019-04-10T23:43:09.520Z,17.93
2019-04-10T23:48:04.575Z,16.23
2019-04-10T23:53:06.559Z,15.77
2019-04-10T23:58:07.789Z,16.57
